Overview Statistics Trail Chart Weather Telemetry Raw packets
 

This is the latest recevied weather packets stored in our database for station/object DK6MR-13. If no packets are shown the sender has not sent any weather packets the latest 10 day(s).

<< 11 12 13 14 15 16 17 >>
Time Temp. Humidity Pressure Rain* Wind** Luminosity Snow
1777802785 22.22° C 44% 1010.1 hPa 0 mm - - -
1777801884 21.67° C 46% 1010.1 hPa 0 mm - - -
1777800983 21.67° C 45% 1010.5 hPa 0 mm - - -
1777800082 20.56° C 47% 1010.8 hPa 0 mm - - -
1777799181 20° C 46% 1010.8 hPa 0 mm - - -
1777798280 19.44° C 48% 1010.8 hPa 0 mm - - -
1777797380 18.89° C 47% 1010.8 hPa 0 mm - - -
1777796479 18.89° C 52% 1010.8 hPa 0 mm - - -
1777795577 18.89° C 52% 1010.8 hPa 0 mm - - -
1777794677 19.44° C 52% 1010.8 hPa 0 mm - - -
1777793776 19.44° C 51% 1010.8 hPa 0 mm - - -
1777792875 17.78° C 58% 1010.8 hPa 0 mm - - -
1777791974 16.67° C 58% 1010.8 hPa 0 mm - - -
1777791073 16.11° C 56% 1010.8 hPa 0 mm - - -
1777790172 15.56° C 61% 1010.8 hPa 0 mm - - -
1777789272 15.56° C 60% 1010.8 hPa 0 mm - - -
1777788371 15.56° C 59% 1010.8 hPa 0 mm - - -
1777787469 15° C 62% 1010.8 hPa 0 mm - - -
1777786568 15° C 65% 1010.8 hPa 0 mm - - -
1777785667 14.44° C 68% 1010.8 hPa 0 mm - - -
1777784766 13.89° C 72% 1010.8 hPa 0 mm - - -
1777783865 13.89° C 71% 1010.8 hPa 0 mm - - -
1777782964 13.89° C 69% 1010.8 hPa 0 mm - - -
1777782063 14.44° C 63% 1010.8 hPa 0 mm - - -
1777781162 13.33° C 75% 1010.8 hPa 0 mm - - -

* Rain latest hour (hover to see other rain measurements)
** Current wind speed in m/s (hover to see current wind gust speed)